Time;durP1;ratioP1;P1;durP2;ratioP2;P2;SDS_P1;SDS_P2;PMS_P1;PMS_P2;Temp;Humidity;BMP_temperature;BMP_pressure;BME280_temperature;BME280_humidity;BME280_pressure;Samples;Min_cycle;Max_cycle;Signal;HPM_P1;HPM_P2
2024/01/16 00:00:08;;;;;;;;;0.00;0.00;;;;;-1.70;91.82;98323.74;113151;238;38967;-56
2024/01/16 00:02:43;;;;;;;;;0.00;0.00;;;;;-1.72;91.98;98326.64;113125;239;39793;-52
2024/01/16 00:05:19;;;;;;;;;2.00;1.00;;;;;-1.72;91.71;98334.35;113152;238;39165;-51
2024/01/16 00:07:55;;;;;;;;;0.00;0.00;;;;;-1.74;91.65;98334.42;113154;238;40120;-52
2024/01/16 00:10:30;;;;;;;;;0.00;0.00;;;;;-1.77;91.49;98338.62;113133;238;39356;-53
2024/01/16 00:13:05;;;;;;;;;1.00;1.00;;;;;-1.82;91.53;98344.42;113209;238;39797;-55
2024/01/16 00:15:45;;;;;;;;;0.00;0.00;;;;;-1.83;91.67;98349.05;113136;238;39353;-56
2024/01/16 00:18:22;;;;;;;;;1.00;0.00;;;;;-1.80;91.55;98356.20;113157;238;40879;-55
2024/01/16 00:21:01;;;;;;;;;0.00;0.00;;;;;-1.85;91.33;98360.92;113130;238;39243;-54
2024/01/16 00:23:39;;;;;;;;;2.00;1.00;;;;;-1.88;91.53;98370.46;113184;238;39338;-52
2024/01/16 00:26:24;;;;;;;;;1.00;1.00;;;;;-1.88;91.62;98379.99;113159;239;41105;-52
2024/01/16 00:29:06;;;;;;;;;1.00;1.00;;;;;-1.88;91.63;98378.54;113188;238;39428;-52
2024/01/16 00:31:42;;;;;;;;;1.00;1.00;;;;;-1.86;91.48;98382.25;113155;238;39587;-52
2024/01/16 00:34:24;;;;;;;;;0.33;0.00;;;;;-1.88;91.48;98387.91;113153;239;41042;-54
2024/01/16 00:37:03;;;;;;;;;0.25;0.00;;;;;-1.87;91.33;98390.84;113122;238;39363;-54
2024/01/16 00:39:41;;;;;;;;;1.00;1.00;;;;;-1.87;91.45;98394.84;113141;238;39130;-54
2024/01/16 00:42:20;;;;;;;;;0.33;0.00;;;;;-1.92;91.37;98399.09;113104;238;39961;-54
2024/01/16 00:44:59;;;;;;;;;0.00;0.00;;;;;-1.95;91.28;98399.71;113111;238;39312;-55
2024/01/16 00:47:37;;;;;;;;;1.67;1.00;;;;;-1.94;91.36;98401.57;113143;239;39122;-51
2024/01/16 00:50:17;;;;;;;;;1.00;1.00;;;;;-1.93;91.07;98410.14;113112;239;39002;-50
2024/01/16 00:52:55;;;;;;;;;0.00;0.00;;;;;-1.98;91.00;98418.38;113084;239;40661;-51
2024/01/16 00:55:35;;;;;;;;;0.00;0.00;;;;;-1.97;91.01;98420.95;113174;238;39922;-50
2024/01/16 00:58:13;;;;;;;;;1.25;1.00;;;;;-1.98;91.02;98432.40;113191;238;40728;-53
2024/01/16 01:00:52;;;;;;;;;1.00;1.00;;;;;-2.03;90.63;98437.97;113149;238;39926;-54
2024/01/16 01:03:36;;;;;;;;;0.00;0.00;;;;;-2.08;90.75;98436.96;113181;238;39545;-53
2024/01/16 01:06:18;;;;;;;;;1.33;1.00;;;;;-2.16;90.23;98441.44;113152;238;40762;-53
2024/01/16 01:08:57;;;;;;;;;0.00;0.00;;;;;-2.22;90.07;98449.20;113164;238;40022;-54
2024/01/16 01:11:35;;;;;;;;;1.00;1.00;;;;;-2.34;90.10;98448.14;113142;238;39364;-55
2024/01/16 01:14:10;;;;;;;;;0.00;0.00;;;;;-2.47;89.93;98451.20;113186;238;39024;-54
2024/01/16 01:16:45;;;;;;;;;0.00;0.00;;;;;-2.54;89.96;98449.43;113120;238;39250;-55
2024/01/16 01:19:27;;;;;;;;;1.00;0.67;;;;;-2.64;89.70;98455.76;113088;238;40963;-51
2024/01/16 01:22:03;;;;;;;;;1.00;0.00;;;;;-2.75;89.86;98460.80;113098;239;40492;-51
2024/01/16 01:24:39;;;;;;;;;1.00;1.00;;;;;-2.82;89.85;98452.48;113187;239;39436;-55
2024/01/16 01:27:17;;;;;;;;;0.00;0.00;;;;;-2.86;89.65;98458.70;113088;238;39461;-55
2024/01/16 01:29:51;;;;;;;;;0.75;0.75;;;;;-2.86;89.69;98469.30;113121;238;40490;-54
2024/01/16 01:32:31;;;;;;;;;2.00;1.75;;;;;-2.90;89.81;98471.25;113110;238;40407;-52
2024/01/16 01:35:08;;;;;;;;;3.00;2.00;;;;;-2.95;89.64;98473.58;113134;238;39520;-54
2024/01/16 01:37:44;;;;;;;;;1.00;0.75;;;;;-3.01;89.79;98481.98;113162;238;39549;-55
2024/01/16 01:40:21;;;;;;;;;2.25;2.00;;;;;-3.02;89.89;98488.64;113184;238;40988;-55
2024/01/16 01:42:58;;;;;;;;;2.00;2.00;;;;;-3.02;90.05;98495.48;113177;238;39237;-49
2024/01/16 01:45:33;;;;;;;;;0.00;0.00;;;;;-3.04;90.01;98500.44;113119;238;40038;-49
2024/01/16 01:48:10;;;;;;;;;2.00;1.00;;;;;-3.07;90.13;98505.89;113120;238;40918;-51
2024/01/16 01:50:44;;;;;;;;;1.00;1.00;;;;;-3.11;90.24;98508.50;113157;239;39221;-51
2024/01/16 01:53:26;;;;;;;;;0.00;0.00;;;;;-3.10;90.36;98512.52;113139;238;40078;-55
2024/01/16 01:56:05;;;;;;;;;2.00;1.00;;;;;-3.10;90.45;98523.91;113104;238;39918;-55
2024/01/16 01:58:45;;;;;;;;;0.00;0.00;;;;;-3.06;90.58;98529.37;113168;239;40112;-54
2024/01/16 02:01:24;;;;;;;;;2.00;1.00;;;;;-3.06;90.61;98531.09;113120;238;39795;-55
2024/01/16 02:04:05;;;;;;;;;0.00;0.00;;;;;-3.06;90.41;98537.31;113153;239;39085;-51
2024/01/16 02:06:45;;;;;;;;;1.00;1.00;;;;;-3.14;90.28;98539.10;113122;238;39681;-51
2024/01/16 02:09:27;;;;;;;;;1.00;1.00;;;;;-3.24;90.17;98540.32;113103;238;38935;-50
2024/01/16 02:12:07;;;;;;;;;0.00;0.00;;;;;-3.32;90.03;98550.58;113158;238;40001;-49
2024/01/16 02:14:42;;;;;;;;;1.00;1.00;;;;;-3.39;89.86;98560.91;113134;238;40943;-55
2024/01/16 02:17:19;;;;;;;;;2.00;1.00;;;;;-3.45;89.53;98560.86;113120;238;39652;-54
2024/01/16 02:19:56;;;;;;;;;1.00;1.00;;;;;-3.53;89.33;98566.54;113123;238;39702;-55
2024/01/16 02:22:37;;;;;;;;;1.00;0.75;;;;;-3.63;89.34;98569.93;113144;239;39182;-51
2024/01/16 02:25:12;;;;;;;;;1.00;0.67;;;;;-3.67;89.40;98574.17;113149;238;39187;-50
2024/01/16 02:27:50;;;;;;;;;0.00;0.00;;;;;-3.68;89.43;98582.04;113197;239;39005;-51
2024/01/16 02:30:31;;;;;;;;;1.25;1.00;;;;;-3.67;89.47;98584.87;113150;238;40413;-52
2024/01/16 02:33:08;;;;;;;;;1.75;1.00;;;;;-3.63;89.24;98593.29;113194;238;40393;-51
2024/01/16 02:35:44;;;;;;;;;1.00;0.00;;;;;-3.59;89.20;98596.98;113284;239;40372;-51
2024/01/16 02:38:22;;;;;;;;;0.00;0.00;;;;;-3.57;89.27;98602.06;113253;238;40728;-55
2024/01/16 02:41:01;;;;;;;;;0.25;0.00;;;;;-3.51;89.22;98606.59;113166;238;41383;-55
2024/01/16 02:43:38;;;;;;;;;0.50;0.25;;;;;-3.49;89.02;98609.60;113117;239;39677;-51
2024/01/16 02:46:17;;;;;;;;;0.00;0.00;;;;;-3.52;88.90;98622.22;113158;239;40485;-49
2024/01/16 02:48:57;;;;;;;;;0.25;0.25;;;;;-3.54;88.73;98623.48;113144;238;40351;-51
2024/01/16 02:51:35;;;;;;;;;1.00;1.00;;;;;-3.57;88.64;98626.15;113117;238;39366;-51
2024/01/16 02:54:14;;;;;;;;;1.00;1.00;;;;;-3.61;88.42;98628.24;113143;238;40291;-53
2024/01/16 02:56:53;;;;;;;;;1.00;1.00;;;;;-3.65;88.35;98633.13;113086;238;39500;-53
2024/01/16 02:59:35;;;;;;;;;2.00;1.00;;;;;-3.67;88.22;98637.13;113151;238;40206;-56
2024/01/16 03:02:16;;;;;;;;;2.00;1.00;;;;;-3.70;88.13;98636.02;113105;238;38990;-55
2024/01/16 03:05:04;;;;;;;;;0.75;0.75;;;;;-3.76;88.14;98642.26;113129;238;40377;-50
2024/01/16 03:07:43;;;;;;;;;1.00;1.00;;;;;-3.82;88.25;98651.21;113144;238;40895;-50
2024/01/16 03:10:20;;;;;;;;;1.00;1.00;;;;;-3.87;87.90;98659.08;113166;238;41462;-50
2024/01/16 03:12:55;;;;;;;;;0.00;0.00;;;;;-3.92;87.89;98661.45;113154;238;41000;-53
2024/01/16 03:15:30;;;;;;;;;1.00;0.00;;;;;-3.98;87.86;98663.15;113186;238;39920;-53
2024/01/16 03:18:06;;;;;;;;;1.00;1.00;;;;;-4.07;87.90;98664.08;113183;238;40282;-50
2024/01/16 03:20:45;;;;;;;;;1.00;1.00;;;;;-4.15;88.03;98669.45;113181;238;39133;-50
2024/01/16 03:23:24;;;;;;;;;1.00;1.00;;;;;-4.24;88.02;98672.48;113153;239;39720;-52
2024/01/16 03:25:58;;;;;;;;;1.00;0.67;;;;;-4.32;87.92;98677.13;113157;238;39870;-51
2024/01/16 03:28:36;;;;;;;;;0.25;0.00;;;;;-4.39;87.92;98683.18;113177;238;39605;-50
2024/01/16 03:31:13;;;;;;;;;2.00;1.00;;;;;-4.41;87.84;98683.91;113140;238;39306;-51
2024/01/16 03:33:50;;;;;;;;;1.00;1.00;;;;;-4.43;87.74;98685.48;113156;238;40924;-54
2024/01/16 03:36:28;;;;;;;;;1.00;0.25;;;;;-4.50;87.78;98692.08;113083;238;39865;-54
2024/01/16 03:39:02;;;;;;;;;1.00;0.00;;;;;-4.54;87.93;98700.17;113154;238;41939;-53
2024/01/16 03:41:41;;;;;;;;;0.00;0.00;;;;;-4.55;87.88;98698.17;113133;238;39647;-53
2024/01/16 03:44:24;;;;;;;;;1.00;0.00;;;;;-4.58;87.80;98703.00;113132;238;39501;-51
2024/01/16 03:47:01;;;;;;;;;0.50;0.00;;;;;-4.62;87.76;98706.39;113103;238;40427;-52
2024/01/16 03:49:42;;;;;;;;;2.25;2.00;;;;;-4.66;87.69;98711.47;113139;238;39385;-56
2024/01/16 03:52:18;;;;;;;;;0.00;0.00;;;;;-4.71;87.65;98722.66;113140;238;40515;-57
2024/01/16 03:54:56;;;;;;;;;2.00;0.00;;;;;-4.75;87.45;98731.05;113147;239;39748;-53
2024/01/16 03:57:34;;;;;;;;;1.00;0.50;;;;;-4.83;87.55;98734.54;113149;238;39524;-52
2024/01/16 04:00:14;;;;;;;;;0.00;0.00;;;;;-4.87;87.54;98744.23;113143;238;39443;-51
2024/01/16 04:02:52;;;;;;;;;1.00;1.00;;;;;-4.92;87.58;98752.36;113161;238;39910;-55
2024/01/16 04:05:33;;;;;;;;;1.00;1.00;;;;;-4.97;87.59;98754.19;113161;238;39620;-55
2024/01/16 04:08:12;;;;;;;;;1.00;1.00;;;;;-5.01;87.44;98758.59;113184;238;41188;-54
2024/01/16 04:10:50;;;;;;;;;0.00;0.00;;;;;-5.08;87.38;98764.50;113131;238;39199;-55
2024/01/16 04:13:25;;;;;;;;;0.00;0.00;;;;;-5.13;87.43;98767.91;113162;238;39422;-50
2024/01/16 04:16:20;;;;;;;;;0.00;0.00;;;;;-5.14;87.51;98771.98;113158;238;39831;-50
2024/01/16 04:18:56;;;;;;;;;0.00;0.00;;;;;-5.14;87.66;98768.30;113171;238;40796;-52
2024/01/16 04:21:38;;;;;;;;;0.00;0.00;;;;;-5.14;87.60;98780.77;113146;238;39174;-53
2024/01/16 04:24:18;;;;;;;;;0.00;0.00;;;;;-5.16;87.55;98782.62;113117;238;40306;-49
2024/01/16 04:26:58;;;;;;;;;0.00;0.00;;;;;-5.22;87.52;98781.86;113124;238;40800;-50
2024/01/16 04:29:37;;;;;;;;;0.00;0.00;;;;;-5.26;87.52;98789.22;113134;238;39236;-51
2024/01/16 04:32:15;;;;;;;;;0.00;0.00;;;;;-5.33;87.50;98798.55;113128;238;40835;-51
2024/01/16 04:34:49;;;;;;;;;0.00;0.00;;;;;-5.40;87.47;98797.38;113123;239;38981;-52
2024/01/16 04:37:26;;;;;;;;;0.00;0.00;;;;;-5.42;87.58;98795.78;113139;238;39833;-51
2024/01/16 04:40:05;;;;;;;;;0.00;0.00;;;;;-5.44;87.43;98798.39;113130;238;41045;-50
2024/01/16 04:42:40;;;;;;;;;0.00;0.00;;;;;-5.48;87.51;98802.79;113147;238;39720;-50
2024/01/16 04:45:14;;;;;;;;;0.00;0.00;;;;;-5.50;87.69;98808.44;113178;238;39903;-51
2024/01/16 04:47:52;;;;;;;;;2.00;1.00;;;;;-5.53;87.66;98811.51;113185;238;39214;-52
2024/01/16 04:50:31;;;;;;;;;4.00;3.00;;;;;-5.60;87.67;98815.75;113133;238;40565;-51
2024/01/16 04:53:06;;;;;;;;;4.67;4.00;;;;;-5.67;87.51;98820.38;113184;238;39874;-51
2024/01/16 04:55:41;;;;;;;;;1.00;1.00;;;;;-5.72;87.47;98829.91;113081;238;39881;-52
2024/01/16 04:58:16;;;;;;;;;0.00;0.00;;;;;-5.76;87.56;98833.42;113140;238;40432;-51
2024/01/16 05:00:50;;;;;;;;;1.00;1.00;;;;;-5.82;87.53;98833.56;113133;239;40807;-50
2024/01/16 05:03:27;;;;;;;;;1.00;1.00;;;;;-5.85;87.46;98835.73;113120;238;39704;-50
2024/01/16 05:06:05;;;;;;;;;1.00;1.00;;;;;-5.87;87.46;98843.23;112673;239;389468;-53
2024/01/16 05:08:41;;;;;;;;;0.75;0.50;;;;;-5.84;87.63;98846.19;113090;238;40309;-54
2024/01/16 05:11:16;;;;;;;;;0.00;0.00;;;;;-5.82;87.74;98851.41;113141;239;39559;-50
2024/01/16 05:13:53;;;;;;;;;1.00;1.00;;;;;-5.81;87.74;98852.61;113153;238;39223;-55
2024/01/16 05:16:32;;;;;;;;;0.00;0.00;;;;;-5.84;87.69;98853.71;113118;238;41059;-55
2024/01/16 05:19:07;;;;;;;;;0.75;0.00;;;;;-5.86;87.86;98857.16;113129;238;41273;-50
2024/01/16 05:21:42;;;;;;;;;1.00;1.00;;;;;-5.81;87.88;98857.50;113142;238;39530;-50
2024/01/16 05:24:19;;;;;;;;;0.00;0.00;;;;;-5.81;87.79;98876.58;113150;239;41080;-50
2024/01/16 05:26:54;;;;;;;;;1.00;1.00;;;;;-5.77;88.02;98878.66;113143;238;39626;-49
2024/01/16 05:29:32;;;;;;;;;0.00;0.00;;;;;-5.75;87.89;98880.27;113152;238;39071;-54
2024/01/16 05:32:07;;;;;;;;;1.00;0.00;;;;;-5.71;88.06;98888.02;113110;239;38975;-55
2024/01/16 05:34:42;;;;;;;;;0.25;0.25;;;;;-5.66;88.16;98889.86;113172;239;40795;-49
2024/01/16 05:37:16;;;;;;;;;1.00;0.33;;;;;-5.61;88.14;98892.43;113138;238;39531;-49
2024/01/16 05:39:52;;;;;;;;;0.00;0.00;;;;;-5.61;88.12;98896.86;113173;238;39929;-53
2024/01/16 05:42:28;;;;;;;;;0.00;0.00;;;;;-5.60;88.23;98896.62;113135;238;39321;-51
2024/01/16 05:45:03;;;;;;;;;0.75;0.00;;;;;-5.55;88.07;98903.20;113169;239;40429;-50
2024/01/16 05:47:39;;;;;;;;;2.00;0.00;;;;;-5.56;88.00;98908.70;113173;238;39656;-56
2024/01/16 05:50:13;;;;;;;;;1.00;1.00;;;;;-5.56;88.12;98917.25;113161;238;41198;-55
2024/01/16 05:52:50;;;;;;;;;2.00;2.00;;;;;-5.55;88.15;98920.54;113179;238;40799;-52
2024/01/16 05:55:25;;;;;;;;;1.00;1.00;;;;;-5.57;88.09;98920.52;113092;238;39971;-52
2024/01/16 05:58:00;;;;;;;;;2.00;2.00;;;;;-5.53;88.15;98922.15;113143;238;41164;-54
2024/01/16 06:00:39;;;;;;;;;2.50;2.00;;;;;-5.48;88.04;98925.41;113119;238;39893;-56
2024/01/16 06:03:19;;;;;;;;;1.00;1.00;;;;;-5.48;87.84;98929.91;113160;238;39880;-54
2024/01/16 06:05:57;;;;;;;;;2.00;2.00;;;;;-5.46;87.87;98937.81;113165;238;39368;-54
2024/01/16 06:08:35;;;;;;;;;1.00;1.00;;;;;-5.42;87.94;98944.91;113095;238;40200;-52
2024/01/16 06:11:12;;;;;;;;;3.00;1.00;;;;;-5.34;87.96;98944.63;113137;238;39652;-51
2024/01/16 06:13:51;;;;;;;;;4.00;2.00;;;;;-5.29;87.83;98958.90;113158;238;38927;-55
2024/01/16 06:16:30;;;;;;;;;1.00;1.00;;;;;-5.23;87.78;98963.85;113153;239;39641;-55
2024/01/16 06:19:13;;;;;;;;;1.50;1.00;;;;;-5.21;87.61;98967.00;113148;238;39906;-55
2024/01/16 06:21:52;;;;;;;;;0.00;0.50;;;;;-5.20;87.68;98971.66;113106;238;39335;-55
2024/01/16 06:24:36;;;;;;;;;2.00;1.00;;;;;-5.23;87.67;98981.42;113128;239;40005;-55
2024/01/16 06:27:18;;;;;;;;;0.00;0.00;;;;;-5.20;87.71;98989.97;113118;239;39463;-50
2024/01/16 06:29:55;;;;;;;;;3.00;1.00;;;;;-5.19;87.69;98999.83;113140;239;39026;-55
2024/01/16 06:32:30;;;;;;;;;0.00;0.00;;;;;-5.16;87.58;99005.61;113142;239;39361;-51
2024/01/16 06:35:07;;;;;;;;;1.00;1.00;;;;;-5.18;87.50;99005.35;113152;238;39079;-50
2024/01/16 06:37:43;;;;;;;;;1.50;1.00;;;;;-5.24;87.31;99017.49;113153;238;39594;-54
2024/01/16 06:40:20;;;;;;;;;0.00;0.00;;;;;-5.31;87.18;99017.02;113100;239;39150;-54
2024/01/16 06:42:56;;;;;;;;;0.00;0.00;;;;;-5.35;87.23;99023.30;113104;239;39167;-52
2024/01/16 06:45:34;;;;;;;;;0.00;0.00;;;;;-5.40;87.12;99022.04;113124;238;39844;-50
2024/01/16 06:48:17;;;;;;;;;1.00;0.00;;;;;-5.45;87.09;99022.45;113139;238;39221;-54
2024/01/16 06:50:55;;;;;;;;;0.00;0.00;;;;;-5.43;87.23;99024.96;113111;238;39411;-55
2024/01/16 06:53:34;;;;;;;;;2.00;1.00;;;;;-5.43;87.08;99028.29;113145;238;40571;-52
2024/01/16 06:56:10;;;;;;;;;1.25;1.25;;;;;-5.45;87.13;99029.27;113165;238;39203;-52
2024/01/16 06:58:47;;;;;;;;;2.00;2.00;;;;;-5.41;87.23;99034.44;113191;238;40570;-56
2024/01/16 07:01:23;;;;;;;;;1.00;1.00;;;;;-5.42;87.25;99036.63;113115;238;40483;-56
2024/01/16 07:03:58;;;;;;;;;0.00;0.00;;;;;-5.41;87.27;99051.60;113147;239;40560;-54
2024/01/16 07:06:34;;;;;;;;;2.25;1.50;;;;;-5.40;87.36;99056.10;113150;239;39188;-54
2024/01/16 07:09:10;;;;;;;;;0.00;0.00;;;;;-5.36;87.49;99061.95;113155;238;39607;-52
2024/01/16 07:11:55;;;;;;;;;2.00;1.00;;;;;-5.32;87.38;99061.42;113099;238;39739;-51
2024/01/16 07:14:31;;;;;;;;;1.00;1.00;;;;;-5.34;87.22;99069.53;113154;238;40932;-50
2024/01/16 07:17:07;;;;;;;;;2.33;2.00;;;;;-5.37;87.06;99072.74;113155;238;39573;-50
2024/01/16 07:19:42;;;;;;;;;1.00;0.75;;;;;-5.37;86.98;99072.33;113181;238;40215;-50
2024/01/16 07:22:23;;;;;;;;;2.00;0.33;;;;;-5.38;86.81;99080.16;113120;238;39809;-51
2024/01/16 07:25:06;;;;;;;;;0.00;0.00;;;;;-5.39;86.86;99087.21;113139;238;40684;-55
2024/01/16 07:27:42;;;;;;;;;0.00;0.00;;;;;-5.38;86.73;99092.29;113180;238;39478;-50
2024/01/16 07:30:23;;;;;;;;;1.00;1.00;;;;;-5.42;86.62;99107.62;113198;238;39759;-50
2024/01/16 07:33:01;;;;;;;;;3.00;2.00;;;;;-5.44;86.65;99117.48;113086;238;39483;-55
2024/01/16 07:35:35;;;;;;;;;1.00;1.00;;;;;-5.41;86.70;99122.11;113216;236;40141;-54
2024/01/16 07:38:11;;;;;;;;;0.00;0.00;;;;;-5.12;87.04;99121.59;113146;237;42595;-55
2024/01/16 07:40:48;;;;;;;;;2.00;1.00;;;;;-4.82;87.01;99127.73;113194;237;38926;-54
2024/01/16 07:43:27;;;;;;;;;1.00;1.00;;;;;-4.56;87.27;99135.45;113164;237;39239;-56
2024/01/16 07:46:03;;;;;;;;;1.00;1.00;;;;;-3.73;88.23;99137.89;113065;237;41160;-52
2024/01/16 07:48:39;;;;;;;;;2.00;1.00;;;;;-2.88;88.26;99139.06;113051;237;39726;-52
2024/01/16 07:51:14;;;;;;;;;3.00;2.00;;;;;-2.45;87.64;99149.80;113168;237;40538;-54
2024/01/16 07:53:51;;;;;;;;;4.00;2.00;;;;;-2.14;86.60;99147.83;113175;237;39667;-55
2024/01/16 07:56:25;;;;;;;;;2.00;2.00;;;;;-1.65;85.20;99153.00;113147;237;39716;-52
2024/01/16 07:59:06;;;;;;;;;3.00;2.00;;;;;-1.27;83.95;99148.28;113108;237;39073;-52
2024/01/16 08:01:44;;;;;;;;;1.00;1.00;;;;;-0.42;83.45;99153.27;113076;237;39460;-56
2024/01/16 08:04:18;;;;;;;;;1.75;1.00;;;;;0.51;82.11;99150.98;113184;237;40806;-56
2024/01/16 08:06:55;;;;;;;;;1.00;1.00;;;;;0.99;81.19;99152.83;113188;237;40146;-51
2024/01/16 08:09:32;;;;;;;;;2.00;1.25;;;;;1.54;80.47;99155.65;113170;237;39374;-51
2024/01/16 08:12:08;;;;;;;;;2.00;1.50;;;;;2.09;79.89;99156.27;113194;237;40172;-53
2024/01/16 08:14:50;;;;;;;;;4.00;3.50;;;;;2.13;78.21;99154.25;113093;237;39587;-53
2024/01/16 08:17:28;;;;;;;;;2.50;2.00;;;;;1.45;77.04;99161.58;113217;237;39192;-54
2024/01/16 08:20:13;;;;;;;;;2.00;1.00;;;;;0.77;76.64;99166.52;113231;237;40207;-54
2024/01/16 08:22:52;;;;;;;;;2.75;2.00;;;;;0.15;76.41;99173.88;113201;237;39146;-52
2024/01/16 08:25:28;;;;;;;;;2.00;2.00;;;;;-0.73;76.74;99182.33;113201;237;41009;-55
2024/01/16 08:28:02;;;;;;;;;2.00;2.00;;;;;-1.31;76.64;99182.43;113176;237;39214;-56
2024/01/16 08:30:39;;;;;;;;;2.75;2.25;;;;;-1.75;76.36;99186.40;113153;237;39006;-52
2024/01/16 08:33:16;;;;;;;;;0.00;0.00;;;;;-2.10;76.42;99196.86;113144;237;39118;-52
2024/01/16 08:35:50;;;;;;;;;1.00;1.00;;;;;-2.47;76.67;99201.11;113185;237;40862;-55
2024/01/16 08:38:29;;;;;;;;;1.00;0.75;;;;;-2.65;77.05;99203.05;113128;237;39735;-56
2024/01/16 08:41:06;;;;;;;;;4.00;2.00;;;;;-2.78;77.48;99208.27;113198;237;40954;-54
2024/01/16 08:43:43;;;;;;;;;4.00;3.00;;;;;-2.90;77.70;99211.70;113175;237;39916;-56
2024/01/16 08:46:23;;;;;;;;;2.00;2.00;;;;;-2.88;78.08;99218.20;113101;237;39487;-52
2024/01/16 08:49:03;;;;;;;;;2.00;2.00;;;;;-2.60;78.13;99222.00;113162;237;38266;-52
2024/01/16 08:51:38;;;;;;;;;2.00;2.00;;;;;-1.72;78.81;99221.77;113191;237;39699;-55
2024/01/16 08:54:13;;;;;;;;;1.00;1.00;;;;;-0.89;77.96;99218.81;113144;237;39869;-55
2024/01/16 08:56:53;;;;;;;;;1.00;1.00;;;;;-1.14;77.38;99228.53;113173;237;39252;-52
2024/01/16 08:59:30;;;;;;;;;1.00;1.00;;;;;-1.55;76.87;99237.45;113135;237;40422;-52
2024/01/16 09:02:07;;;;;;;;;1.00;1.00;;;;;-1.92;76.32;99244.38;113197;237;39150;-55
2024/01/16 09:04:47;;;;;;;;;1.00;0.75;;;;;-2.21;76.07;99252.38;113257;237;39386;-58
2024/01/16 09:07:25;;;;;;;;;1.00;1.00;;;;;-2.40;76.36;99253.00;113126;237;40082;-57
2024/01/16 09:10:05;;;;;;;;;2.00;2.00;;;;;-2.59;76.26;99252.29;113152;237;39194;-55
2024/01/16 09:12:44;;;;;;;;;1.00;1.00;;;;;-2.46;76.75;99255.00;113148;237;39286;-53
2024/01/16 09:15:23;;;;;;;;;3.00;2.00;;;;;-1.88;77.05;99256.23;113117;237;40057;-53
2024/01/16 09:18:04;;;;;;;;;2.00;2.00;;;;;-1.15;77.04;99253.66;113148;237;39035;-55
2024/01/16 09:20:46;;;;;;;;;0.00;0.00;;;;;-0.62;75.43;99251.98;113171;237;39139;-55
2024/01/16 09:23:23;;;;;;;;;1.00;1.00;;;;;-0.38;75.68;99247.82;113133;237;39320;-55
2024/01/16 09:26:01;;;;;;;;;1.75;1.50;;;;;0.05;75.46;99249.98;113225;237;39634;-55
2024/01/16 09:28:37;;;;;;;;;1.00;1.00;;;;;0.11;75.17;99250.63;113250;237;40104;-56
2024/01/16 09:31:12;;;;;;;;;2.00;1.67;;;;;0.24;75.10;99251.41;113160;237;38963;-55
2024/01/16 09:33:48;;;;;;;;;1.00;1.00;;;;;0.42;74.85;99247.96;113147;237;40803;-56
2024/01/16 09:36:25;;;;;;;;;1.00;0.00;;;;;0.76;74.82;99248.81;113086;237;39644;-55
2024/01/16 09:39:02;;;;;;;;;1.00;1.00;;;;;1.41;74.57;99255.46;113081;237;40163;-55
2024/01/16 09:41:38;;;;;;;;;3.00;2.00;;;;;1.76;74.32;99257.60;113165;237;39987;-51
2024/01/16 09:44:12;;;;;;;;;2.00;1.00;;;;;1.90;73.80;99258.51;113127;237;40505;-52
2024/01/16 09:46:51;;;;;;;;;1.00;1.00;;;;;2.57;71.98;99255.66;113147;237;39642;-56
2024/01/16 09:49:27;;;;;;;;;1.00;1.00;;;;;3.07;71.90;99259.18;113131;237;39338;-56
2024/01/16 09:52:04;;;;;;;;;2.67;2.00;;;;;3.24;70.50;99263.51;113139;237;39700;-52
2024/01/16 09:54:40;;;;;;;;;4.00;3.00;;;;;3.15;71.18;99268.96;113164;237;41137;-52
2024/01/16 09:57:20;;;;;;;;;2.00;1.00;;;;;3.58;69.68;99270.61;113124;237;40512;-52
2024/01/16 10:00:03;;;;;;;;;1.00;1.00;;;;;4.00;68.54;99277.94;113128;237;40581;-52
2024/01/16 10:02:42;;;;;;;;;1.00;1.00;;;;;4.21;68.59;99283.70;113170;237;39140;-57
2024/01/16 10:05:18;;;;;;;;;1.00;1.00;;;;;4.21;67.21;99279.59;113095;237;40245;-56
2024/01/16 10:07:57;;;;;;;;;2.00;2.00;;;;;4.25;67.60;99279.63;113123;237;41600;-56
2024/01/16 10:10:37;;;;;;;;;2.00;2.00;;;;;4.45;67.34;99284.16;113217;237;39226;-54
2024/01/16 10:13:17;;;;;;;;;2.00;2.00;;;;;4.21;65.17;99292.42;113100;237;39595;-55
2024/01/16 10:15:56;;;;;;;;;1.00;1.00;;;;;4.21;65.82;99297.91;113152;237;40167;-50
2024/01/16 10:18:37;;;;;;;;;1.00;0.50;;;;;4.36;65.49;99301.18;113120;237;39250;-51
2024/01/16 10:21:31;;;;;;;;;1.00;1.00;;;;;4.16;65.27;99307.65;113130;237;39680;-56
2024/01/16 10:24:19;;;;;;;;;4.00;3.00;;;;;4.47;64.37;99307.08;113123;237;40253;-56
2024/01/16 10:27:03;;;;;;;;;1.00;1.00;;;;;4.47;63.15;99307.40;113131;237;40159;-53
2024/01/16 10:29:39;;;;;;;;;3.00;2.00;;;;;4.26;62.92;99315.02;113189;237;39486;-54
2024/01/16 10:32:27;;;;;;;;;3.00;1.67;;;;;3.48;62.86;99316.06;113185;237;39333;-55
2024/01/16 10:35:10;;;;;;;;;3.00;2.00;;;;;3.02;62.43;99321.44;113214;237;39222;-55
2024/01/16 10:37:49;;;;;;;;;1.00;1.00;;;;;2.27;61.64;99327.05;113236;237;39981;-51
2024/01/16 10:40:26;;;;;;;;;1.00;1.00;;;;;1.79;61.72;99331.36;113189;237;40143;-55
2024/01/16 10:43:06;;;;;;;;;1.75;1.00;;;;;1.19;60.98;99335.96;113207;237;39847;-56
2024/01/16 10:45:43;;;;;;;;;0.25;0.00;;;;;0.87;61.98;99337.73;113115;237;40244;-55
2024/01/16 10:48:22;;;;;;;;;2.25;2.00;;;;;0.44;61.65;99342.05;113167;237;40587;-55
2024/01/16 10:50:57;;;;;;;;;1.00;1.00;;;;;-0.22;62.84;99341.91;113170;237;39078;-56
2024/01/16 10:53:38;;;;;;;;;2.00;1.00;;;;;-0.39;63.61;99345.60;113188;237;40191;-56
2024/01/16 10:56:18;;;;;;;;;1.00;1.00;;;;;-0.53;64.03;99342.86;113194;237;39786;-54
2024/01/16 10:59:05;;;;;;;;;1.00;1.00;;;;;-0.59;64.44;99348.40;113238;237;39304;-54
2024/01/16 11:01:51;;;;;;;;;3.00;2.00;;;;;-0.77;64.70;99340.48;113289;237;39625;-54
2024/01/16 11:04:29;;;;;;;;;0.00;0.00;;;;;-0.76;64.68;99343.55;113154;237;39381;-55
2024/01/16 11:07:06;;;;;;;;;0.00;0.00;;;;;-0.97;64.78;99350.14;113143;237;41904;-55
2024/01/16 11:09:45;;;;;;;;;0.00;0.00;;;;;-1.02;64.88;99348.56;113179;237;39515;-54
2024/01/16 11:12:26;;;;;;;;;0.00;0.00;;;;;-1.26;64.74;99357.95;113153;237;40339;-52
2024/01/16 11:15:07;;;;;;;;;1.00;1.00;;;;;-1.45;65.48;99359.94;113175;237;39661;-51
2024/01/16 11:17:45;;;;;;;;;2.00;1.00;;;;;-1.43;65.26;99359.05;113153;237;39404;-54
2024/01/16 11:20:28;;;;;;;;;2.00;1.00;;;;;-1.44;65.11;99361.64;113143;237;40024;-53
2024/01/16 11:23:04;;;;;;;;;1.00;0.00;;;;;-1.68;64.97;99373.14;113173;237;39894;-51
2024/01/16 11:25:44;;;;;;;;;1.75;1.00;;;;;-1.78;65.54;99371.11;113196;237;39854;-51
2024/01/16 11:28:21;;;;;;;;;1.00;0.00;;;;;-1.91;65.57;99373.14;113150;237;39546;-52
2024/01/16 11:31:20;;;;;;;;;0.00;0.00;;;;;-2.03;66.00;99368.92;113207;237;39199;-51
2024/01/16 11:33:55;;;;;;;;;1.00;1.00;;;;;-2.02;66.05;99370.20;113159;237;39293;-51
2024/01/16 11:36:54;;;;;;;;;0.00;0.00;;;;;-2.19;65.54;99372.06;113193;237;39965;-56
2024/01/16 11:39:29;;;;;;;;;1.00;1.00;;;;;-2.31;66.11;99369.11;113208;237;39185;-55
2024/01/16 11:42:05;;;;;;;;;0.00;0.00;;;;;-2.29;66.35;99372.85;113217;237;41991;-50
2024/01/16 11:44:48;;;;;;;;;1.00;1.00;;;;;-2.43;66.41;99383.33;113146;237;39236;-50
2024/01/16 11:47:26;;;;;;;;;2.00;1.00;;;;;-2.38;66.64;99375.34;113214;237;40376;-54
2024/01/16 11:50:31;;;;;;;;;0.00;0.00;;;;;-2.34;66.73;99373.44;113085;237;38875;-54
2024/01/16 11:53:11;;;;;;;;;2.00;1.00;;;;;-2.27;66.97;99380.40;113185;237;39564;-56
2024/01/16 11:56:11;;;;;;;;;1.00;1.00;;;;;-2.07;66.72;99386.68;113209;237;39441;-51
2024/01/16 11:59:02;;;;;;;;;1.00;1.00;;;;;-1.95;67.12;99395.30;113181;237;39419;-51
2024/01/16 12:01:43;;;;;;;;;0.33;0.00;;;;;-1.87;66.78;99401.17;113159;237;39315;-56
2024/01/16 12:04:22;;;;;;;;;1.00;0.00;;;;;-1.75;66.01;99399.20;113151;237;39726;-53
2024/01/16 12:07:10;;;;;;;;;0.00;0.00;;;;;-1.71;66.77;99398.20;113189;237;40620;-49
2024/01/16 12:09:48;;;;;;;;;0.00;0.00;;;;;-1.65;66.76;99396.71;113117;237;39722;-51
2024/01/16 12:12:25;;;;;;;;;1.00;0.50;;;;;-1.59;66.61;99398.44;113157;237;40012;-55
2024/01/16 12:15:03;;;;;;;;;1.00;1.00;;;;;-1.63;66.78;99400.05;113112;237;40478;-55
2024/01/16 12:17:39;;;;;;;;;1.00;1.00;;;;;-1.74;67.01;99408.27;113115;237;40446;-53
2024/01/16 12:20:24;;;;;;;;;1.00;0.00;;;;;-1.92;67.24;99408.30;113137;237;39501;-53
2024/01/16 12:23:02;;;;;;;;;1.00;1.00;;;;;-1.84;67.24;99406.13;113166;237;39780;-55
2024/01/16 12:25:42;;;;;;;;;1.00;0.00;;;;;-1.76;67.17;99409.16;113231;237;39565;-52